sensor_id;sensor_type;location;lat;lon;timestamp;temperature;humidity
27619;DHT22;15039;50.830;4.730;2023-04-25T00:01:17;9.50;99.90
27619;DHT22;15039;50.830;4.730;2023-04-25T00:03:43;9.40;99.90
27619;DHT22;15039;50.830;4.730;2023-04-25T00:06:08;9.30;99.90
27619;DHT22;15039;50.830;4.730;2023-04-25T00:08:34;9.30;99.90
27619;DHT22;15039;50.830;4.730;2023-04-25T00:11:00;9.20;99.90
27619;DHT22;15039;50.830;4.730;2023-04-25T00:13:27;9.10;99.90
27619;DHT22;15039;50.830;4.730;2023-04-25T00:15:53;9.20;99.90
27619;DHT22;15039;50.830;4.730;2023-04-25T00:18:19;9.20;99.90
27619;DHT22;15039;50.830;4.730;2023-04-25T00:20:45;9.30;99.90
27619;DHT22;15039;50.830;4.730;2023-04-25T00:23:16;9.40;99.90
27619;DHT22;15039;50.830;4.730;2023-04-25T00:25:49;9.20;99.90
27619;DHT22;15039;50.830;4.730;2023-04-25T00:28:16;9.30;99.90
27619;DHT22;15039;50.830;4.730;2023-04-25T00:30:42;9.30;99.90
27619;DHT22;15039;50.830;4.730;2023-04-25T00:33:08;9.30;99.90
27619;DHT22;15039;50.830;4.730;2023-04-25T00:35:35;9.20;99.90
27619;DHT22;15039;50.830;4.730;2023-04-25T00:38:02;9.10;99.90
27619;DHT22;15039;50.830;4.730;2023-04-25T00:40:31;9.30;99.90
27619;DHT22;15039;50.830;4.730;2023-04-25T00:42:57;9.20;99.90
27619;DHT22;15039;50.830;4.730;2023-04-25T00:45:27;9.30;99.90
27619;DHT22;15039;50.830;4.730;2023-04-25T00:47:54;9.20;99.90
27619;DHT22;15039;50.830;4.730;2023-04-25T00:50:20;9.30;99.90
27619;DHT22;15039;50.830;4.730;2023-04-25T00:52:46;9.40;99.90
27619;DHT22;15039;50.830;4.730;2023-04-25T00:55:12;9.40;99.90
27619;DHT22;15039;50.830;4.730;2023-04-25T00:57:39;9.30;99.90
27619;DHT22;15039;50.830;4.730;2023-04-25T01:00:06;9.30;99.90
27619;DHT22;15039;50.830;4.730;2023-04-25T01:02:33;9.40;99.90
27619;DHT22;15039;50.830;4.730;2023-04-25T01:05:01;9.30;99.90
27619;DHT22;15039;50.830;4.730;2023-04-25T01:07:27;9.30;99.90
27619;DHT22;15039;50.830;4.730;2023-04-25T01:09:52;9.20;99.90
27619;DHT22;15039;50.830;4.730;2023-04-25T01:12:18;9.10;99.90
27619;DHT22;15039;50.830;4.730;2023-04-25T01:14:44;9.30;99.90
27619;DHT22;15039;50.830;4.730;2023-04-25T01:17:19;9.20;99.90
27619;DHT22;15039;50.830;4.730;2023-04-25T01:19:45;9.00;99.90
27619;DHT22;15039;50.830;4.730;2023-04-25T01:22:15;9.00;99.90
27619;DHT22;15039;50.830;4.730;2023-04-25T01:24:41;9.10;99.90
27619;DHT22;15039;50.830;4.730;2023-04-25T01:27:07;9.10;99.90
27619;DHT22;15039;50.830;4.730;2023-04-25T01:29:36;8.90;99.90
27619;DHT22;15039;50.830;4.730;2023-04-25T01:32:02;9.10;99.90
27619;DHT22;15039;50.830;4.730;2023-04-25T01:34:34;9.20;99.90
27619;DHT22;15039;50.830;4.730;2023-04-25T01:37:03;9.10;99.90
27619;DHT22;15039;50.830;4.730;2023-04-25T01:39:29;9.10;99.90
27619;DHT22;15039;50.830;4.730;2023-04-25T01:42:09;9.00;99.90
27619;DHT22;15039;50.830;4.730;2023-04-25T01:44:35;9.00;99.90
27619;DHT22;15039;50.830;4.730;2023-04-25T01:47:01;8.80;99.90
27619;DHT22;15039;50.830;4.730;2023-04-25T01:49:27;8.90;99.90
27619;DHT22;15039;50.830;4.730;2023-04-25T01:51:53;9.00;99.90
27619;DHT22;15039;50.830;4.730;2023-04-25T01:54:19;9.00;99.90
27619;DHT22;15039;50.830;4.730;2023-04-25T01:56:51;9.10;99.90
27619;DHT22;15039;50.830;4.730;2023-04-25T01:59:18;9.10;99.90
27619;DHT22;15039;50.830;4.730;2023-04-25T02:01:45;9.00;99.90
27619;DHT22;15039;50.830;4.730;2023-04-25T02:04:11;8.70;99.90
27619;DHT22;15039;50.830;4.730;2023-04-25T02:06:36;8.60;99.90
27619;DHT22;15039;50.830;4.730;2023-04-25T02:09:02;8.40;99.90
27619;DHT22;15039;50.830;4.730;2023-04-25T02:11:28;8.30;99.90
27619;DHT22;15039;50.830;4.730;2023-04-25T02:13:53;8.40;99.90
27619;DHT22;15039;50.830;4.730;2023-04-25T02:16:19;8.30;99.90
27619;DHT22;15039;50.830;4.730;2023-04-25T02:18:45;8.30;99.90
27619;DHT22;15039;50.830;4.730;2023-04-25T02:21:11;8.30;99.90
27619;DHT22;15039;50.830;4.730;2023-04-25T02:23:37;8.30;99.90
27619;DHT22;15039;50.830;4.730;2023-04-25T02:26:03;8.30;99.90
27619;DHT22;15039;50.830;4.730;2023-04-25T02:28:28;8.30;99.90
27619;DHT22;15039;50.830;4.730;2023-04-25T02:30:54;8.30;99.90
27619;DHT22;15039;50.830;4.730;2023-04-25T02:33:20;8.20;99.90
27619;DHT22;15039;50.830;4.730;2023-04-25T02:35:46;8.40;99.90
27619;DHT22;15039;50.830;4.730;2023-04-25T02:38:13;8.30;99.90
27619;DHT22;15039;50.830;4.730;2023-04-25T02:40:40;8.20;99.90
27619;DHT22;15039;50.830;4.730;2023-04-25T02:43:06;8.30;99.90
27619;DHT22;15039;50.830;4.730;2023-04-25T02:45:35;8.40;99.90
27619;DHT22;15039;50.830;4.730;2023-04-25T02:48:02;8.40;99.90
27619;DHT22;15039;50.830;4.730;2023-04-25T02:50:28;8.30;99.90
27619;DHT22;15039;50.830;4.730;2023-04-25T02:52:54;8.40;99.90
27619;DHT22;15039;50.830;4.730;2023-04-25T02:55:20;8.30;99.90
27619;DHT22;15039;50.830;4.730;2023-04-25T02:57:45;8.20;99.90
27619;DHT22;15039;50.830;4.730;2023-04-25T03:00:12;8.20;99.90
27619;DHT22;15039;50.830;4.730;2023-04-25T03:02:39;8.10;99.90
27619;DHT22;15039;50.830;4.730;2023-04-25T03:05:05;8.20;99.90
27619;DHT22;15039;50.830;4.730;2023-04-25T03:07:31;8.30;99.90
27619;DHT22;15039;50.830;4.730;2023-04-25T03:09:57;8.40;99.90
27619;DHT22;15039;50.830;4.730;2023-04-25T03:12:23;8.40;99.90
27619;DHT22;15039;50.830;4.730;2023-04-25T03:14:48;8.40;99.90
27619;DHT22;15039;50.830;4.730;2023-04-25T03:17:14;8.30;99.90
27619;DHT22;15039;50.830;4.730;2023-04-25T03:19:40;8.20;99.90
27619;DHT22;15039;50.830;4.730;2023-04-25T03:22:05;8.20;99.90
27619;DHT22;15039;50.830;4.730;2023-04-25T03:24:31;8.20;99.90
27619;DHT22;15039;50.830;4.730;2023-04-25T03:26:57;8.20;99.90
27619;DHT22;15039;50.830;4.730;2023-04-25T03:29:22;8.00;99.90
27619;DHT22;15039;50.830;4.730;2023-04-25T03:31:51;8.10;99.90
27619;DHT22;15039;50.830;4.730;2023-04-25T03:34:16;8.30;99.90
27619;DHT22;15039;50.830;4.730;2023-04-25T03:36:42;8.20;99.90
27619;DHT22;15039;50.830;4.730;2023-04-25T03:39:08;8.20;99.90
27619;DHT22;15039;50.830;4.730;2023-04-25T03:41:34;8.30;99.90
27619;DHT22;15039;50.830;4.730;2023-04-25T03:43:59;8.30;99.90
27619;DHT22;15039;50.830;4.730;2023-04-25T03:46:25;8.30;99.90
27619;DHT22;15039;50.830;4.730;2023-04-25T03:48:51;8.20;99.90
27619;DHT22;15039;50.830;4.730;2023-04-25T03:51:16;8.10;99.90
27619;DHT22;15039;50.830;4.730;2023-04-25T03:53:42;7.90;99.90
27619;DHT22;15039;50.830;4.730;2023-04-25T03:56:08;8.00;99.90
27619;DHT22;15039;50.830;4.730;2023-04-25T03:58:34;8.10;99.90
27619;DHT22;15039;50.830;4.730;2023-04-25T04:01:00;8.00;99.90
27619;DHT22;15039;50.830;4.730;2023-04-25T04:03:28;7.90;99.90
27619;DHT22;15039;50.830;4.730;2023-04-25T04:05:54;7.80;99.90
27619;DHT22;15039;50.830;4.730;2023-04-25T04:08:20;7.70;99.90
27619;DHT22;15039;50.830;4.730;2023-04-25T04:10:45;7.40;99.90
27619;DHT22;15039;50.830;4.730;2023-04-25T04:13:11;7.20;99.90
27619;DHT22;15039;50.830;4.730;2023-04-25T04:15:37;7.00;99.90
27619;DHT22;15039;50.830;4.730;2023-04-25T04:18:02;7.00;99.90
27619;DHT22;15039;50.830;4.730;2023-04-25T04:20:29;7.00;99.90
27619;DHT22;15039;50.830;4.730;2023-04-25T04:22:56;7.00;99.90
27619;DHT22;15039;50.830;4.730;2023-04-25T04:25:21;6.90;99.90
27619;DHT22;15039;50.830;4.730;2023-04-25T04:27:47;6.90;99.90
27619;DHT22;15039;50.830;4.730;2023-04-25T04:30:14;7.00;99.90
27619;DHT22;15039;50.830;4.730;2023-04-25T04:32:40;7.00;99.90
27619;DHT22;15039;50.830;4.730;2023-04-25T04:35:06;7.00;99.90
27619;DHT22;15039;50.830;4.730;2023-04-25T04:37:32;7.20;99.90
27619;DHT22;15039;50.830;4.730;2023-04-25T04:39:58;7.40;99.90
27619;DHT22;15039;50.830;4.730;2023-04-25T04:42:24;7.30;99.90
27619;DHT22;15039;50.830;4.730;2023-04-25T04:44:52;7.40;99.90
27619;DHT22;15039;50.830;4.730;2023-04-25T04:47:17;7.40;99.90
27619;DHT22;15039;50.830;4.730;2023-04-25T04:49:45;7.40;99.90
27619;DHT22;15039;50.830;4.730;2023-04-25T04:52:20;7.40;99.90
27619;DHT22;15039;50.830;4.730;2023-04-25T04:54:46;7.40;99.90
27619;DHT22;15039;50.830;4.730;2023-04-25T04:57:12;7.40;99.90
27619;DHT22;15039;50.830;4.730;2023-04-25T04:59:37;7.60;99.90
27619;DHT22;15039;50.830;4.730;2023-04-25T05:02:03;7.60;99.90
27619;DHT22;15039;50.830;4.730;2023-04-25T05:04:29;7.70;99.90
27619;DHT22;15039;50.830;4.730;2023-04-25T05:06:54;7.80;99.90
27619;DHT22;15039;50.830;4.730;2023-04-25T05:09:20;7.70;99.90
27619;DHT22;15039;50.830;4.730;2023-04-25T05:11:51;7.70;99.90
27619;DHT22;15039;50.830;4.730;2023-04-25T05:14:17;7.80;99.90
27619;DHT22;15039;50.830;4.730;2023-04-25T05:16:43;7.80;99.90
27619;DHT22;15039;50.830;4.730;2023-04-25T05:19:09;8.00;99.90
27619;DHT22;15039;50.830;4.730;2023-04-25T05:21:35;8.10;99.90
27619;DHT22;15039;50.830;4.730;2023-04-25T05:24:01;8.20;99.90
27619;DHT22;15039;50.830;4.730;2023-04-25T05:26:27;8.20;99.90
27619;DHT22;15039;50.830;4.730;2023-04-25T05:28:57;8.10;99.90
27619;DHT22;15039;50.830;4.730;2023-04-25T05:31:23;7.90;99.90
27619;DHT22;15039;50.830;4.730;2023-04-25T05:33:48;8.00;99.90
27619;DHT22;15039;50.830;4.730;2023-04-25T05:36:16;8.00;99.90
27619;DHT22;15039;50.830;4.730;2023-04-25T05:38:42;8.00;99.90
27619;DHT22;15039;50.830;4.730;2023-04-25T05:41:08;7.90;99.90
27619;DHT22;15039;50.830;4.730;2023-04-25T05:43:34;7.80;99.90
27619;DHT22;15039;50.830;4.730;2023-04-25T05:45:59;7.90;99.90
27619;DHT22;15039;50.830;4.730;2023-04-25T05:48:25;7.80;99.90
27619;DHT22;15039;50.830;4.730;2023-04-25T05:50:51;7.70;99.90
27619;DHT22;15039;50.830;4.730;2023-04-25T05:53:17;7.50;99.90
27619;DHT22;15039;50.830;4.730;2023-04-25T05:55:43;7.60;99.90
27619;DHT22;15039;50.830;4.730;2023-04-25T05:58:09;7.70;99.90
27619;DHT22;15039;50.830;4.730;2023-04-25T06:00:35;7.80;99.90
27619;DHT22;15039;50.830;4.730;2023-04-25T06:03:01;7.60;99.90
27619;DHT22;15039;50.830;4.730;2023-04-25T06:05:27;7.70;99.90
27619;DHT22;15039;50.830;4.730;2023-04-25T06:07:53;7.80;99.90
27619;DHT22;15039;50.830;4.730;2023-04-25T06:10:19;7.80;99.90
27619;DHT22;15039;50.830;4.730;2023-04-25T06:12:45;7.70;99.90
27619;DHT22;15039;50.830;4.730;2023-04-25T06:15:11;7.80;99.90
27619;DHT22;15039;50.830;4.730;2023-04-25T06:17:36;7.90;99.90
27619;DHT22;15039;50.830;4.730;2023-04-25T06:20:02;7.80;99.90
27619;DHT22;15039;50.830;4.730;2023-04-25T06:22:29;7.80;99.90
27619;DHT22;15039;50.830;4.730;2023-04-25T06:24:55;8.00;99.90
27619;DHT22;15039;50.830;4.730;2023-04-25T06:27:24;8.10;99.90
27619;DHT22;15039;50.830;4.730;2023-04-25T06:29:50;8.10;99.90
27619;DHT22;15039;50.830;4.730;2023-04-25T06:32:16;8.10;99.90
27619;DHT22;15039;50.830;4.730;2023-04-25T06:34:45;8.20;99.90
27619;DHT22;15039;50.830;4.730;2023-04-25T06:37:11;8.30;99.90
27619;DHT22;15039;50.830;4.730;2023-04-25T06:39:37;8.40;99.90
27619;DHT22;15039;50.830;4.730;2023-04-25T06:42:02;8.30;99.90
27619;DHT22;15039;50.830;4.730;2023-04-25T06:44:28;8.30;99.90
27619;DHT22;15039;50.830;4.730;2023-04-25T06:46:55;8.40;99.90
27619;DHT22;15039;50.830;4.730;2023-04-25T06:49:20;8.60;99.90
27619;DHT22;15039;50.830;4.730;2023-04-25T06:51:46;8.80;99.90
27619;DHT22;15039;50.830;4.730;2023-04-25T06:54:12;9.00;99.90
27619;DHT22;15039;50.830;4.730;2023-04-25T06:56:38;9.00;99.90
27619;DHT22;15039;50.830;4.730;2023-04-25T06:59:04;9.00;99.90
27619;DHT22;15039;50.830;4.730;2023-04-25T07:01:29;8.80;99.90
27619;DHT22;15039;50.830;4.730;2023-04-25T07:03:55;8.80;99.90
27619;DHT22;15039;50.830;4.730;2023-04-25T07:06:21;9.00;99.90
27619;DHT22;15039;50.830;4.730;2023-04-25T07:08:47;9.00;99.90
27619;DHT22;15039;50.830;4.730;2023-04-25T07:11:13;8.90;99.90
27619;DHT22;15039;50.830;4.730;2023-04-25T07:13:39;9.00;99.90
27619;DHT22;15039;50.830;4.730;2023-04-25T07:16:05;9.20;99.90
27619;DHT22;15039;50.830;4.730;2023-04-25T07:18:31;9.10;99.90
27619;DHT22;15039;50.830;4.730;2023-04-25T07:20:56;9.00;99.90
27619;DHT22;15039;50.830;4.730;2023-04-25T07:23:22;9.00;99.90
27619;DHT22;15039;50.830;4.730;2023-04-25T07:25:48;9.10;99.90
27619;DHT22;15039;50.830;4.730;2023-04-25T07:28:14;8.80;99.90
27619;DHT22;15039;50.830;4.730;2023-04-25T07:30:39;8.80;99.90
27619;DHT22;15039;50.830;4.730;2023-04-25T07:33:05;8.80;99.90
27619;DHT22;15039;50.830;4.730;2023-04-25T07:35:31;8.90;99.90
27619;DHT22;15039;50.830;4.730;2023-04-25T07:37:57;9.00;99.90
27619;DHT22;15039;50.830;4.730;2023-04-25T07:40:22;9.00;99.90
27619;DHT22;15039;50.830;4.730;2023-04-25T07:42:48;9.10;99.90
27619;DHT22;15039;50.830;4.730;2023-04-25T07:45:14;9.10;99.90
27619;DHT22;15039;50.830;4.730;2023-04-25T07:47:39;9.20;99.90
27619;DHT22;15039;50.830;4.730;2023-04-25T07:50:05;9.40;99.90
27619;DHT22;15039;50.830;4.730;2023-04-25T07:52:32;9.60;99.90
27619;DHT22;15039;50.830;4.730;2023-04-25T07:54:57;9.60;99.90
27619;DHT22;15039;50.830;4.730;2023-04-25T07:57:24;9.70;99.90
27619;DHT22;15039;50.830;4.730;2023-04-25T07:59:50;9.70;99.90
27619;DHT22;15039;50.830;4.730;2023-04-25T08:02:15;9.90;99.90
27619;DHT22;15039;50.830;4.730;2023-04-25T08:04:41;9.90;99.90
27619;DHT22;15039;50.830;4.730;2023-04-25T08:07:07;9.70;99.90
27619;DHT22;15039;50.830;4.730;2023-04-25T08:09:33;9.70;99.90
27619;DHT22;15039;50.830;4.730;2023-04-25T08:12:00;9.70;99.90
27619;DHT22;15039;50.830;4.730;2023-04-25T08:14:28;9.80;99.90
27619;DHT22;15039;50.830;4.730;2023-04-25T08:16:56;9.90;99.90
27619;DHT22;15039;50.830;4.730;2023-04-25T08:19:22;10.20;99.90
27619;DHT22;15039;50.830;4.730;2023-04-25T08:21:50;10.30;99.90
27619;DHT22;15039;50.830;4.730;2023-04-25T08:24:17;10.30;99.90
27619;DHT22;15039;50.830;4.730;2023-04-25T08:26:42;10.30;99.90
27619;DHT22;15039;50.830;4.730;2023-04-25T08:29:08;10.10;99.90
27619;DHT22;15039;50.830;4.730;2023-04-25T08:31:34;10.00;99.90
27619;DHT22;15039;50.830;4.730;2023-04-25T08:33:59;9.90;99.90
27619;DHT22;15039;50.830;4.730;2023-04-25T08:36:25;9.80;99.90
27619;DHT22;15039;50.830;4.730;2023-04-25T08:38:53;9.40;99.90
27619;DHT22;15039;50.830;4.730;2023-04-25T08:41:19;9.10;99.90
27619;DHT22;15039;50.830;4.730;2023-04-25T08:43:49;8.60;99.90
27619;DHT22;15039;50.830;4.730;2023-04-25T08:46:18;8.20;99.90
27619;DHT22;15039;50.830;4.730;2023-04-25T08:48:45;8.00;99.90
27619;DHT22;15039;50.830;4.730;2023-04-25T08:51:22;7.90;99.90
27619;DHT22;15039;50.830;4.730;2023-04-25T08:53:51;7.70;99.90
27619;DHT22;15039;50.830;4.730;2023-04-25T08:56:18;7.60;99.90
27619;DHT22;15039;50.830;4.730;2023-04-25T08:58:50;7.50;99.90
27619;DHT22;15039;50.830;4.730;2023-04-25T09:01:17;7.60;99.90
27619;DHT22;15039;50.830;4.730;2023-04-25T09:03:44;7.60;99.90
27619;DHT22;15039;50.830;4.730;2023-04-25T09:06:13;7.60;99.90
27619;DHT22;15039;50.830;4.730;2023-04-25T09:08:39;7.60;99.90
27619;DHT22;15039;50.830;4.730;2023-04-25T09:11:06;7.80;99.90
27619;DHT22;15039;50.830;4.730;2023-04-25T09:13:33;8.00;99.90
27619;DHT22;15039;50.830;4.730;2023-04-25T09:15:58;8.20;99.90
27619;DHT22;15039;50.830;4.730;2023-04-25T09:18:32;8.40;99.90
27619;DHT22;15039;50.830;4.730;2023-04-25T09:21:09;8.50;99.90
27619;DHT22;15039;50.830;4.730;2023-04-25T09:23:53;8.60;99.90
27619;DHT22;15039;50.830;4.730;2023-04-25T09:26:20;8.90;99.90
27619;DHT22;15039;50.830;4.730;2023-04-25T09:28:46;9.20;99.90
27619;DHT22;15039;50.830;4.730;2023-04-25T09:31:24;9.50;99.90
27619;DHT22;15039;50.830;4.730;2023-04-25T09:34:02;9.80;99.90
27619;DHT22;15039;50.830;4.730;2023-04-25T09:36:30;10.30;99.90
27619;DHT22;15039;50.830;4.730;2023-04-25T09:38:55;10.50;99.90
27619;DHT22;15039;50.830;4.730;2023-04-25T09:41:25;10.60;99.90
27619;DHT22;15039;50.830;4.730;2023-04-25T09:43:51;10.60;99.90
27619;DHT22;15039;50.830;4.730;2023-04-25T09:46:17;10.60;99.90
27619;DHT22;15039;50.830;4.730;2023-04-25T09:48:50;10.00;99.90
27619;DHT22;15039;50.830;4.730;2023-04-25T09:51:16;10.00;99.90
27619;DHT22;15039;50.830;4.730;2023-04-25T09:53:44;10.10;99.90
27619;DHT22;15039;50.830;4.730;2023-04-25T09:56:12;9.90;99.90
27619;DHT22;15039;50.830;4.730;2023-04-25T09:58:40;9.50;99.90
27619;DHT22;15039;50.830;4.730;2023-04-25T10:01:08;9.30;99.90
27619;DHT22;15039;50.830;4.730;2023-04-25T10:03:35;9.10;99.90
27619;DHT22;15039;50.830;4.730;2023-04-25T10:06:03;9.00;99.90
27619;DHT22;15039;50.830;4.730;2023-04-25T10:08:32;9.00;99.90
27619;DHT22;15039;50.830;4.730;2023-04-25T10:11:04;9.10;99.90
27619;DHT22;15039;50.830;4.730;2023-04-25T10:13:31;9.50;99.90
27619;DHT22;15039;50.830;4.730;2023-04-25T10:16:04;9.40;99.90
27619;DHT22;15039;50.830;4.730;2023-04-25T10:18:31;9.50;99.90
27619;DHT22;15039;50.830;4.730;2023-04-25T10:20:59;9.60;99.90
27619;DHT22;15039;50.830;4.730;2023-04-25T10:23:25;9.50;99.90
27619;DHT22;15039;50.830;4.730;2023-04-25T10:25:52;9.40;99.90
27619;DHT22;15039;50.830;4.730;2023-04-25T10:31:10;9.80;99.90
27619;DHT22;15039;50.830;4.730;2023-04-25T10:33:38;10.10;99.90
27619;DHT22;15039;50.830;4.730;2023-04-25T10:36:23;10.20;99.90
27619;DHT22;15039;50.830;4.730;2023-04-25T10:38:51;10.60;99.90
27619;DHT22;15039;50.830;4.730;2023-04-25T10:41:25;11.10;99.90
27619;DHT22;15039;50.830;4.730;2023-04-25T10:43:59;11.40;99.90
27619;DHT22;15039;50.830;4.730;2023-04-25T10:46:28;11.60;99.90
27619;DHT22;15039;50.830;4.730;2023-04-25T10:49:00;11.60;99.90
27619;DHT22;15039;50.830;4.730;2023-04-25T10:51:34;11.70;99.90
27619;DHT22;15039;50.830;4.730;2023-04-25T10:54:08;11.80;99.90
27619;DHT22;15039;50.830;4.730;2023-04-25T10:56:41;11.60;99.90
27619;DHT22;15039;50.830;4.730;2023-04-25T10:59:19;11.40;99.90
27619;DHT22;15039;50.830;4.730;2023-04-25T11:01:48;11.10;99.90
27619;DHT22;15039;50.830;4.730;2023-04-25T11:04:29;10.70;99.90
27619;DHT22;15039;50.830;4.730;2023-04-25T11:09:37;10.80;99.90
27619;DHT22;15039;50.830;4.730;2023-04-25T11:12:04;11.20;99.90
27619;DHT22;15039;50.830;4.730;2023-04-25T11:14:30;11.50;99.90
27619;DHT22;15039;50.830;4.730;2023-04-25T11:17:16;11.70;99.90
27619;DHT22;15039;50.830;4.730;2023-04-25T11:19:42;11.70;99.90
27619;DHT22;15039;50.830;4.730;2023-04-25T11:22:07;11.80;99.90
27619;DHT22;15039;50.830;4.730;2023-04-25T11:24:38;11.80;99.90
27619;DHT22;15039;50.830;4.730;2023-04-25T11:27:04;11.90;99.90
27619;DHT22;15039;50.830;4.730;2023-04-25T11:29:34;11.60;99.90
27619;DHT22;15039;50.830;4.730;2023-04-25T11:32:02;11.40;99.90
27619;DHT22;15039;50.830;4.730;2023-04-25T11:34:29;11.10;99.90
27619;DHT22;15039;50.830;4.730;2023-04-25T11:36:58;10.70;99.90
27619;DHT22;15039;50.830;4.730;2023-04-25T11:39:31;10.50;99.90
27619;DHT22;15039;50.830;4.730;2023-04-25T11:41:57;10.40;99.90
27619;DHT22;15039;50.830;4.730;2023-04-25T11:44:30;10.30;99.90
27619;DHT22;15039;50.830;4.730;2023-04-25T11:46:56;10.10;99.90
27619;DHT22;15039;50.830;4.730;2023-04-25T11:49:22;9.80;99.90
27619;DHT22;15039;50.830;4.730;2023-04-25T11:51:50;9.80;99.90
27619;DHT22;15039;50.830;4.730;2023-04-25T11:54:25;10.00;99.90
27619;DHT22;15039;50.830;4.730;2023-04-25T11:56:52;10.20;99.90
27619;DHT22;15039;50.830;4.730;2023-04-25T11:59:25;10.30;99.90
27619;DHT22;15039;50.830;4.730;2023-04-25T12:01:52;10.60;99.90
27619;DHT22;15039;50.830;4.730;2023-04-25T12:04:23;10.90;99.90
27619;DHT22;15039;50.830;4.730;2023-04-25T12:06:51;11.10;99.90
27619;DHT22;15039;50.830;4.730;2023-04-25T12:09:29;11.10;99.90
27619;DHT22;15039;50.830;4.730;2023-04-25T12:12:01;11.30;99.90
27619;DHT22;15039;50.830;4.730;2023-04-25T12:14:48;11.50;99.90
27619;DHT22;15039;50.830;4.730;2023-04-25T12:17:14;11.70;99.90
27619;DHT22;15039;50.830;4.730;2023-04-25T12:19:42;12.00;99.90
27619;DHT22;15039;50.830;4.730;2023-04-25T12:22:21;12.20;99.90
27619;DHT22;15039;50.830;4.730;2023-04-25T12:24:48;12.10;99.90
27619;DHT22;15039;50.830;4.730;2023-04-25T12:27:31;12.00;99.90
27619;DHT22;15039;50.830;4.730;2023-04-25T12:29:58;11.70;99.90
27619;DHT22;15039;50.830;4.730;2023-04-25T12:32:24;11.50;99.90
27619;DHT22;15039;50.830;4.730;2023-04-25T12:34:53;11.30;99.90
27619;DHT22;15039;50.830;4.730;2023-04-25T12:37:19;11.30;99.90
27619;DHT22;15039;50.830;4.730;2023-04-25T12:39:44;11.30;99.90
27619;DHT22;15039;50.830;4.730;2023-04-25T12:42:11;11.40;99.90
27619;DHT22;15039;50.830;4.730;2023-04-25T12:44:43;11.50;99.90
27619;DHT22;15039;50.830;4.730;2023-04-25T12:47:09;11.30;99.90
27619;DHT22;15039;50.830;4.730;2023-04-25T12:49:36;11.30;99.90
27619;DHT22;15039;50.830;4.730;2023-04-25T12:52:08;11.60;99.90
27619;DHT22;15039;50.830;4.730;2023-04-25T12:54:33;11.80;99.90
27619;DHT22;15039;50.830;4.730;2023-04-25T12:57:02;11.80;99.90
27619;DHT22;15039;50.830;4.730;2023-04-25T12:59:28;11.60;99.90
27619;DHT22;15039;50.830;4.730;2023-04-25T13:01:54;11.70;99.90
27619;DHT22;15039;50.830;4.730;2023-04-25T13:04:20;11.60;99.90
27619;DHT22;15039;50.830;4.730;2023-04-25T13:06:46;11.60;99.90
27619;DHT22;15039;50.830;4.730;2023-04-25T13:09:15;11.60;99.90
27619;DHT22;15039;50.830;4.730;2023-04-25T13:11:43;11.60;99.90
27619;DHT22;15039;50.830;4.730;2023-04-25T13:14:11;11.50;99.90
27619;DHT22;15039;50.830;4.730;2023-04-25T13:16:49;11.70;99.90
27619;DHT22;15039;50.830;4.730;2023-04-25T13:19:16;12.10;99.90
27619;DHT22;15039;50.830;4.730;2023-04-25T13:21:43;12.30;99.90
27619;DHT22;15039;50.830;4.730;2023-04-25T13:24:10;12.40;99.90
27619;DHT22;15039;50.830;4.730;2023-04-25T13:26:36;12.50;99.90
27619;DHT22;15039;50.830;4.730;2023-04-25T13:29:02;12.40;99.90
27619;DHT22;15039;50.830;4.730;2023-04-25T13:31:29;12.20;99.90
27619;DHT22;15039;50.830;4.730;2023-04-25T13:33:56;12.10;99.90
27619;DHT22;15039;50.830;4.730;2023-04-25T13:36:21;12.00;99.90
27619;DHT22;15039;50.830;4.730;2023-04-25T13:38:47;11.60;99.90
27619;DHT22;15039;50.830;4.730;2023-04-25T13:41:17;11.50;99.90
27619;DHT22;15039;50.830;4.730;2023-04-25T13:43:45;11.30;99.90
27619;DHT22;15039;50.830;4.730;2023-04-25T13:46:12;11.20;99.90
27619;DHT22;15039;50.830;4.730;2023-04-25T13:48:38;11.30;99.90
27619;DHT22;15039;50.830;4.730;2023-04-25T13:51:05;11.50;99.90
27619;DHT22;15039;50.830;4.730;2023-04-25T13:53:32;11.60;99.90
27619;DHT22;15039;50.830;4.730;2023-04-25T13:55:58;11.60;99.90
27619;DHT22;15039;50.830;4.730;2023-04-25T13:58:23;11.50;99.90
27619;DHT22;15039;50.830;4.730;2023-04-25T14:00:49;11.60;99.90
27619;DHT22;15039;50.830;4.730;2023-04-25T14:03:14;11.70;99.90
27619;DHT22;15039;50.830;4.730;2023-04-25T14:05:40;11.70;99.90
27619;DHT22;15039;50.830;4.730;2023-04-25T14:08:09;11.80;99.90
27619;DHT22;15039;50.830;4.730;2023-04-25T14:10:37;11.80;99.90
27619;DHT22;15039;50.830;4.730;2023-04-25T14:13:04;11.80;99.90
27619;DHT22;15039;50.830;4.730;2023-04-25T14:15:31;11.70;99.90
27619;DHT22;15039;50.830;4.730;2023-04-25T14:17:57;11.70;99.90
27619;DHT22;15039;50.830;4.730;2023-04-25T14:20:37;11.80;99.90
27619;DHT22;15039;50.830;4.730;2023-04-25T14:23:03;12.00;99.90
27619;DHT22;15039;50.830;4.730;2023-04-25T14:25:31;12.10;99.90
27619;DHT22;15039;50.830;4.730;2023-04-25T14:27:57;12.20;99.90
27619;DHT22;15039;50.830;4.730;2023-04-25T14:30:22;12.30;99.90
27619;DHT22;15039;50.830;4.730;2023-04-25T14:32:49;12.00;99.90
27619;DHT22;15039;50.830;4.730;2023-04-25T14:35:15;11.80;99.90
27619;DHT22;15039;50.830;4.730;2023-04-25T14:37:41;11.80;99.90
27619;DHT22;15039;50.830;4.730;2023-04-25T14:40:09;11.50;99.90
27619;DHT22;15039;50.830;4.730;2023-04-25T14:42:36;11.50;99.90
27619;DHT22;15039;50.830;4.730;2023-04-25T14:45:06;11.40;99.90
27619;DHT22;15039;50.830;4.730;2023-04-25T14:47:33;11.50;99.90
27619;DHT22;15039;50.830;4.730;2023-04-25T14:49:58;11.60;99.90
27619;DHT22;15039;50.830;4.730;2023-04-25T14:52:24;11.70;99.90
27619;DHT22;15039;50.830;4.730;2023-04-25T14:54:51;11.80;99.90
27619;DHT22;15039;50.830;4.730;2023-04-25T14:57:17;12.10;99.90
27619;DHT22;15039;50.830;4.730;2023-04-25T14:59:43;12.40;99.90
27619;DHT22;15039;50.830;4.730;2023-04-25T15:02:09;12.50;99.90
27619;DHT22;15039;50.830;4.730;2023-04-25T15:04:34;12.30;99.90
27619;DHT22;15039;50.830;4.730;2023-04-25T15:07:00;12.20;99.90
27619;DHT22;15039;50.830;4.730;2023-04-25T15:09:26;12.00;99.90
27619;DHT22;15039;50.830;4.730;2023-04-25T15:11:52;11.90;99.90
27619;DHT22;15039;50.830;4.730;2023-04-25T15:14:17;11.80;99.90
27619;DHT22;15039;50.830;4.730;2023-04-25T15:16:43;11.80;99.90
27619;DHT22;15039;50.830;4.730;2023-04-25T15:19:09;11.90;99.90
27619;DHT22;15039;50.830;4.730;2023-04-25T15:21:35;11.90;99.90
27619;DHT22;15039;50.830;4.730;2023-04-25T15:24:01;11.90;99.90
27619;DHT22;15039;50.830;4.730;2023-04-25T15:26:27;11.90;99.90
27619;DHT22;15039;50.830;4.730;2023-04-25T15:28:54;11.90;99.90
27619;DHT22;15039;50.830;4.730;2023-04-25T15:31:28;11.90;99.90
27619;DHT22;15039;50.830;4.730;2023-04-25T15:33:54;11.70;99.90
27619;DHT22;15039;50.830;4.730;2023-04-25T15:36:20;11.60;99.90
27619;DHT22;15039;50.830;4.730;2023-04-25T15:38:49;11.50;99.90
27619;DHT22;15039;50.830;4.730;2023-04-25T15:41:15;11.30;99.90
27619;DHT22;15039;50.830;4.730;2023-04-25T15:43:43;11.20;99.90
27619;DHT22;15039;50.830;4.730;2023-04-25T15:46:11;11.20;99.90